Flight Track Log - Related Links

Times and Time Zones

All times are in EDT time to prevent confusion due to time zone crossing. See the AFL150 flight status page for this flight to view local times or setup timezone preferences in your user account.

Time Position Orientation Groundspeed Altitude Reporting Facility
EDT Latitude Longitude Course Direction KTS MPH feet Rate Location/Type
Sun 05:40:00 AM 56.0974 36.9389 307° West  Level Estimated
Sun 05:41:00 AM 56.1643 36.7759 306° West  Level Estimated
Sun 05:42:00 AM 56.2309 36.6124 306° West  Level Estimated
Sun 05:43:00 AM 56.2974 36.4483 306° West  Level Estimated
Sun 05:44:00 AM 56.3636 36.2837 306° West  Level Estimated
Sun 05:45:00 AM 56.4296 36.1185 306° West  Level Estimated
Sun 05:46:00 AM 56.4954 35.9527 306° West  Level Estimated
Sun 05:47:00 AM 56.5609 35.7863 306° West  Level Estimated
Sun 05:48:00 AM 56.6263 35.6194 305° West  Level Estimated
Sun 05:49:00 AM 56.6913 35.4519 305° West  Level Estimated
Sun 05:50:00 AM 56.7562 35.2838 305° West  Level Estimated
Sun 05:51:00 AM 56.8209 35.1151 305° West  Level Estimated
Sun 05:52:00 AM 56.8853 34.9458 305° West  Level Estimated
Sun 05:53:00 AM 56.9495 34.7760 305° West  Level Estimated
Sun 05:54:00 AM 57.0135 34.6055 305° West  Level Estimated
Sun 05:55:00 AM 57.0772 34.4345 304° West  Level Estimated
Sun 05:56:00 AM 57.1407 34.2629 304° West  Level Estimated
Sun 05:57:00 AM 57.2040 34.0907 304° West  Level Estimated
Sun 05:58:00 AM 57.2670 33.9179 304° West  Level Estimated
Sun 05:59:00 AM 57.3298 33.7446 304° West  Level Estimated
Sun 06:00:00 AM 57.3923 33.5706 304° West  Level Estimated
Sun 06:01:00 AM 57.4547 33.3960 304° West  Level Estimated
Sun 06:02:00 AM 57.5167 33.2209 303° West  Level Estimated
Sun 06:03:00 AM 57.5785 33.0451 303° West  Level Estimated
Sun 06:04:00 AM 57.6401 32.8688 303° West  Level Estimated
Sun 06:05:00 AM 57.7015 32.6918 303° West  Level Estimated
Sun 06:06:00 AM 57.7625 32.5143 303° West  Level Estimated
Sun 06:07:00 AM 57.8234 32.3362 303° West  Level Estimated
Sun 06:08:00 AM 57.8840 32.1574 303° West  Level Estimated
Sun 06:09:00 AM 57.9443 31.9781 302° West  Level Estimated
Sun 06:10:00 AM 58.0044 31.7981 302° West  Level Estimated
Sun 06:11:00 AM 58.0642 31.6176 302° West  Level Estimated
Sun 06:12:00 AM 58.1238 31.4364 302° West  Level Estimated
Sun 06:13:00 AM 58.1831 31.2546 302° West  Level Estimated
Sun 06:14:00 AM 58.2421 31.0723 302° West  Level Estimated
Sun 06:15:00 AM 58.3009 30.8893 302° West  Level Estimated
Sun 06:16:00 AM 58.3595 30.7057 301° West  Level Estimated
Sun 06:17:00 AM 58.4177 30.5215 301° West  Level Estimated
Sun 06:18:00 AM 58.4757 30.3367 301° West  Level Estimated
Sun 06:19:00 AM 58.5335 30.1513 301° West  Level Estimated
Sun 06:20:00 AM 58.5909 29.9653 301° West  Level Estimated
Sun 06:21:00 AM 58.6481 29.7786 301° West  Level Estimated
Sun 06:22:00 AM 58.7051 29.5914 300° West  Level Estimated
Sun 06:23:00 AM 58.7617 29.4035 300° West  Level Estimated
Sun 06:24:00 AM 58.8181 29.2151 300° West  Level Estimated
Sun 06:25:00 AM 58.8742 29.0260 300° West  Level Estimated
Sun 06:26:00 AM 58.9300 28.8363 300° West  Level Estimated
Sun 06:27:00 AM 58.9856 28.6460 300° West  Level Estimated
Sun 06:28:00 AM 59.0409 28.4551 299° West  Level Estimated
Sun 06:29:00 AM 59.0958 28.2635 299° West  Level Estimated
Sun 06:30:00 AM 59.1505 28.0714 299° West  Level Estimated
Sun 06:31:00 AM 59.2050 27.8786 299° West  Level Estimated
Sun 06:32:00 AM 59.2591 27.6852 299° West  Level Estimated
Sun 06:33:00 AM 59.3129 27.4912 299° West  Level Estimated
Sun 06:34:00 AM 59.3665 27.2966 298° West  Level Estimated
Sun 06:35:00 AM 59.4198 27.1014 298° West  Level Estimated
Sun 06:36:00 AM 59.4727 26.9056 298° West  Level Estimated
Sun 06:37:00 AM 59.5254 26.7092 298° West  Level Estimated
Sun 06:38:00 AM 59.5778 26.5121 298° West  Level Estimated
Sun 06:39:00 AM 59.6299 26.3144 298° West  Level Estimated
Sun 06:40:00 AM 59.6817 26.1162 297° West  Level Estimated
Sun 06:41:00 AM 59.7332 25.9173 297° West  Level Estimated
Sun 06:42:00 AM 59.7844 25.7178 297° West  Level Estimated
Sun 06:43:00 AM 59.8352 25.5177 297° West  Level Estimated
Sun 06:44:00 AM 59.8858 25.3169 297° West  Level Estimated
Sun 06:45:00 AM 59.9361 25.1156 297° West  Level Estimated
Sun 06:46:00 AM 59.9861 24.9136 296° West  Level Estimated
Sun 06:47:00 AM 60.0357 24.7111 296° West  Level Estimated
Sun 06:48:00 AM 60.0851 24.5079 296° West  Level Estimated
Sun 06:49:00 AM 60.1341 24.3041 296° West  Level Estimated
Sun 06:50:00 AM 60.1828 24.0998 296° West  Level Estimated
Sun 06:51:00 AM 60.2312 23.8948 296° West  Level Estimated
Sun 06:52:00 AM 60.2793 23.6892 295° West  Level Estimated
Sun 06:53:00 AM 60.3271 23.4830 295° West  Level Estimated
Sun 06:54:00 AM 60.3745 23.2762 295° West  Level Estimated
Sun 06:55:00 AM 60.4217 23.0688 295° West  Level Estimated
Sun 06:56:00 AM 60.4685 22.8608 295° West  Level Estimated
Sun 06:57:00 AM 60.5149 22.6522 294° West  Level Estimated
Sun 06:58:00 AM 60.5611 22.4431 294° West  Level Estimated
Sun 06:59:00 AM 60.6069 22.2333 294° West  Level Estimated
Sun 07:00:00 AM 60.6524 22.0229 294° West  Level Estimated
Sun 07:01:00 AM 60.6976 21.8119 294° West  Level Estimated
Sun 07:02:00 AM 60.7424 21.6003 294° West  Level Estimated
Sun 07:03:00 AM 60.7869 21.3882 293° West  Level Estimated
Sun 07:04:00 AM 60.8311 21.1755 293° West  Level Estimated
Sun 07:05:00 AM 60.8749 20.9621 293° West  Level Estimated
Sun 07:06:00 AM 60.9184 20.7482 293° West  Level Estimated
Sun 07:07:00 AM 60.9615 20.5337 293° West  Level Estimated
Sun 07:08:00 AM 61.0043 20.3186 292° West  Level Estimated
Sun 07:09:00 AM 61.0468 20.1030 292° West  Level Estimated
Sun 07:10:00 AM 61.0889 19.8868 292° West  Level Estimated
Sun 07:11:00 AM 61.1307 19.6700 292° West  Level Estimated
Sun 07:12:00 AM 61.1721 19.4526 292° West  Level Estimated
Sun 07:13:00 AM 61.2132 19.2346 291° West  Level Estimated
Sun 07:14:00 AM 61.2539 19.0161 291° West  Level Estimated
Sun 07:15:00 AM 61.2943 18.7971 291° West  Level Estimated
Sun 07:16:00 AM 61.3343 18.5774 291° West  Level Estimated
Sun 07:17:00 AM 61.3740 18.3572 291° West  Level Estimated
Sun 07:18:00 AM 61.4133 18.1365 290° West  Level Estimated
Sun 07:19:00 AM 61.4522 17.9152 290° West  Level Estimated
Sun 07:20:00 AM 61.4908 17.6933 290° West  Level Estimated
Sun 07:21:00 AM 61.5290 17.4709 290° West  Level Estimated
Sun 07:22:00 AM 61.5669 17.2479 290° West  Level Estimated
Sun 07:23:00 AM 61.6044 17.0245 290° West  Level Estimated
Sun 07:24:00 AM 61.6415 16.8004 289° West  Level Estimated
Sun 07:25:00 AM 61.6783 16.5758 289° West  Level Estimated
Sun 07:26:00 AM 61.7147 16.3507 289° West  Level Estimated
Sun 07:27:00 AM 61.7507 16.1251 289° West  Level Estimated
Sun 07:28:00 AM 61.7864 15.8990 289° West  Level Estimated
Sun 07:29:00 AM 61.8217 15.6723 288° West  Level Estimated
Sun 07:30:00 AM 61.8566 15.4451 288° West  Level Estimated
Sun 07:31:00 AM 61.8911 15.2174 288° West  Level Estimated
Sun 07:32:00 AM 61.9253 14.9891 288° West  Level Estimated
Sun 07:33:00 AM 61.9591 14.7604 288° West  Level Estimated
Sun 07:34:00 AM 61.9925 14.5312 287° West  Level Estimated
Sun 07:35:00 AM 62.0255 14.3014 287° West  Level Estimated
Sun 07:36:00 AM 62.0581 14.0712 287° West  Level Estimated
Sun 07:37:00 AM 62.0904 13.8405 287° West  Level Estimated
Sun 07:38:00 AM 62.1222 13.6093 287° West  Level Estimated
Sun 07:39:00 AM 62.1537 13.3776 286° West  Level Estimated
Sun 07:40:00 AM 62.1848 13.1454 286° West  Level Estimated
Sun 07:41:00 AM 62.2155 12.9127 286° West  Level Estimated
Sun 07:42:00 AM 62.2458 12.6796 286° West  Level Estimated
Sun 07:43:00 AM 62.2757 12.4460 285° West  Level Estimated
Sun 07:44:00 AM 62.3053 12.2120 285° West  Level Estimated
Sun 07:45:00 AM 62.3344 11.9775 285° West  Level Estimated
Sun 07:46:00 AM 62.3632 11.7425 285° West  Level Estimated
Sun 07:47:00 AM 62.3915 11.5071 285° West  Level Estimated
Sun 07:48:00 AM 62.4194 11.2712 284° West  Level Estimated
Sun 07:49:00 AM 62.4470 11.0349 284° West  Level Estimated
Sun 07:50:00 AM 62.4741 10.7982 284° West  Level Estimated
Sun 07:51:00 AM 62.5009 10.5611 284° West  Level Estimated
Sun 07:52:00 AM 62.5272 10.3235 284° West  Level Estimated
Sun 07:53:00 AM 62.5531 10.0855 283° West  Level Estimated
Sun 07:54:00 AM 62.5787 9.8471 283° West  Level Estimated
Sun 07:55:00 AM 62.6038 9.6083 283° West  Level Estimated
Sun 07:56:00 AM 62.6285 9.3691 283° West  Level Estimated
Sun 07:57:00 AM 62.6528 9.1295 283° West  Level Estimated
Sun 07:58:00 AM 62.6767 8.8895 282° West  Level Estimated
Sun 07:59:00 AM 62.7002 8.6491 282° West  Level Estimated
Sun 08:00:00 AM 62.7233 8.4083 282° West  Level Estimated
Sun 08:01:00 AM 62.7460 8.1672 282° West  Level Estimated
Sun 08:02:00 AM 62.7682 7.9257 281° West  Level Estimated
Sun 08:03:00 AM 62.7901 7.6839 281° West  Level Estimated
Sun 08:04:00 AM 62.8115 7.4416 281° West  Level Estimated
Sun 08:05:00 AM 62.8325 7.1991 281° West  Level Estimated
Sun 08:06:00 AM 62.8531 6.9562 281° West  Level Estimated
Sun 08:07:00 AM 62.8732 6.7129 280° West  Level Estimated
Sun 08:08:00 AM 62.8930 6.4694 280° West  Level Estimated
Sun 08:09:00 AM 62.9123 6.2255 280° West  Level Estimated
Sun 08:10:00 AM 62.9312 5.9812 280° West  Level Estimated
Sun 08:11:00 AM 62.9497 5.7367 280° West  Level Estimated
Sun 08:12:00 AM 62.9678 5.4919 279° West  Level Estimated
Sun 08:13:00 AM 62.9854 5.2467 279° West  Level Estimated
Sun 08:14:00 AM 63.0026 5.0013 279° West  Level Estimated
Sun 08:15:00 AM 63.0194 4.7556 279° West  Level Estimated
Sun 08:16:00 AM 63.0358 4.5096 278° West  Level Estimated
Sun 08:17:00 AM 63.0517 4.2633 278° West  Level Estimated
Sun 08:18:00 AM 63.0672 4.0168 278° West  Level Estimated
Sun 08:19:00 AM 63.0823 3.7700 278° West  Level Estimated
Sun 08:20:00 AM 63.0969 3.5230 278° West  Level Estimated
Sun 08:21:00 AM 63.1111 3.2757 277° West  Level Estimated
Sun 08:22:00 AM 63.1249 3.0282 277° West  Level Estimated
Sun 08:23:00 AM 63.1383 2.7804 277° West  Level Estimated
Sun 08:24:00 AM 63.1512 2.5324 277° West  Level Estimated
Sun 08:25:00 AM 63.1637 2.2842 276° West  Level Estimated
Sun 08:26:00 AM 63.1757 2.0358 276° West  Level Estimated
Sun 08:27:00 AM 63.1873 1.7872 276° West  Level Estimated
Sun 08:28:00 AM 63.1985 1.5384 276° West  Level Estimated
Sun 08:29:00 AM 63.2093 1.2894 276° West  Level Estimated
Sun 08:30:00 AM 63.2196 1.0402 275° West  Level Estimated
Sun 08:31:00 AM 63.2295 0.7908 275° West  Level Estimated
Sun 08:32:00 AM 63.2389 0.5413 275° West  Level Estimated
Sun 08:33:00 AM 63.2479 0.2916 275° West  Level Estimated
Sun 08:34:00 AM 63.2565 0.0418 274° West  Level Estimated
Sun 08:35:00 AM 63.2646 -0.2082 274° West  Level Estimated
Sun 08:36:00 AM 63.2723 -0.4583 274° West  Level Estimated
Sun 08:37:00 AM 63.2796 -0.7085 274° West  Level Estimated
Sun 08:38:00 AM 63.2864 -0.9589 274° West  Level Estimated
Sun 08:39:00 AM 63.2927 -1.2094 273° West  Level Estimated
Sun 08:40:00 AM 63.2987 -1.4600 273° West  Level Estimated
Sun 08:41:00 AM 63.3042 -1.7106 273° West  Level Estimated
Sun 08:42:00 AM 63.3092 -1.9614 273° West  Level Estimated
Sun 08:43:00 AM 63.3138 -2.2123 272° West  Level Estimated
Sun 08:44:00 AM 63.3180 -2.4632 272° West  Level Estimated
Sun 08:45:00 AM 63.3217 -2.7142 272° West  Level Estimated
Sun 08:46:00 AM 63.3250 -2.9653 272° West  Level Estimated
Sun 08:47:00 AM 63.3279 -3.2164 272° West  Level Estimated
Sun 08:48:00 AM 63.3303 -3.4676 271° West  Level Estimated
Sun 08:49:00 AM 63.3322 -3.7188 271° West  Level Estimated
Sun 08:50:00 AM 63.3338 -3.9700 271° West  Level Estimated
Sun 08:51:00 AM 63.3348 -4.2213 271° West  Level Estimated
Sun 08:52:00 AM 63.3355 -4.4726 270° West  Level Estimated
Sun 08:53:00 AM 63.3357 -4.7238 270° West  Level Estimated
Sun 08:54:00 AM 63.3354 -4.9751 270° West  Level Estimated
Sun 08:55:00 AM 63.3347 -5.2264 270° West  Level Estimated
Sun 08:56:00 AM 63.3336 -5.4777 270° West  Level Estimated
Sun 08:57:00 AM 63.3320 -5.7289 269° West  Level Estimated
Sun 08:58:00 AM 63.3300 -5.9801 269° West  Level Estimated
Sun 08:59:00 AM 63.3276 -6.2313 269° West  Level Estimated
Sun 09:00:00 AM 63.3247 -6.4824 269° West  Level Estimated
Sun 09:01:00 AM 63.3213 -6.7334 268° West  Level Estimated
Sun 09:02:00 AM 63.3176 -6.9844 268° West  Level Estimated
Sun 09:03:00 AM 63.3133 -7.2354 268° West  Level Estimated
Sun 09:04:00 AM 63.3087 -7.4862 268° West  Level Estimated
Sun 09:05:00 AM 63.3036 -7.7370 268° West  Level Estimated
Sun 09:06:00 AM 63.2980 -7.9877 267° West  Level Estimated
Sun 09:07:00 AM 63.2921 -8.2382 267° West  Level Estimated
Sun 09:08:00 AM 63.2856 -8.4887 267° West  Level Estimated
Sun 09:09:00 AM 63.2788 -8.7391 267° West  Level Estimated
Sun 09:10:00 AM 63.2715 -8.9893 266° West  Level Estimated
Sun 09:11:00 AM 63.2637 -9.2394 266° West  Level Estimated
Sun 09:12:00 AM 63.2556 -9.4894 266° West  Level Estimated
Sun 09:13:00 AM 63.2469 -9.7392 266° West  Level Estimated
Sun 09:14:00 AM 63.2379 -9.9888 266° West  Level Estimated
Sun 09:15:00 AM 63.2284 -10.2383 265° West  Level Estimated
Sun 09:16:00 AM 63.2185 -10.4877 265° West  Level Estimated
Sun 09:17:00 AM 63.2081 -10.7368 265° West  Level Estimated
Sun 09:18:00 AM 63.1973 -10.9858 265° West  Level Estimated
Sun 09:19:00 AM 63.1861 -11.2346 264° West  Level Estimated
Sun 09:20:00 AM 63.1744 -11.4832 264° West  Level Estimated
Sun 09:21:00 AM 63.1623 -11.7316 264° West  Level Estimated
Sun 09:22:00 AM 63.1498 -11.9797 264° West  Level Estimated
Sun 09:23:00 AM 63.1368 -12.2277 264° West  Level Estimated
Sun 09:24:00 AM 63.1234 -12.4754 263° West  Level Estimated
Sun 09:25:00 AM 63.1096 -12.7229 263° West  Level Estimated
Sun 09:26:00 AM 63.0953 -12.9702 263° West  Level Estimated
Sun 09:27:00 AM 63.0806 -13.2172 263° West  Level Estimated
Sun 09:28:00 AM 63.0655 -13.4640 262° West  Level Estimated
Sun 09:29:00 AM 63.0499 -13.7105 262° West  Level Estimated
Sun 09:30:00 AM 63.0340 -13.9567 262° West  Level Estimated
Sun 09:31:00 AM 63.0176 -14.2027 262° West  Level Estimated
Sun 09:32:00 AM 63.0007 -14.4484 262° West  Level Estimated
Sun 09:33:00 AM 62.9835 -14.6938 261° West  Level Estimated
Sun 09:34:00 AM 62.9658 -14.9389 261° West  Level Estimated
Sun 09:35:00 AM 62.9477 -15.1837 261° West  Level Estimated
Sun 09:36:00 AM 62.9291 -15.4282 261° West  Level Estimated
Sun 09:37:00 AM 62.9102 -15.6724 260° West  Level Estimated
Sun 09:38:00 AM 62.8908 -15.9162 260° West  Level Estimated
Sun 09:39:00 AM 62.8710 -16.1598 260° West  Level Estimated
Sun 09:40:00 AM 62.8508 -16.4030 260° West  Level Estimated
Sun 09:41:00 AM 62.8302 -16.6458 260° West  Level Estimated
Sun 09:42:00 AM 62.8091 -16.8884 259° West  Level Estimated
Sun 09:43:00 AM 62.7877 -17.1305 259° West  Level Estimated
Sun 09:44:00 AM 62.7658 -17.3724 259° West  Level Estimated
Sun 09:45:00 AM 62.7435 -17.6138 259° West  Level Estimated
Sun 09:46:00 AM 62.7208 -17.8549 258° West  Level Estimated
Sun 09:47:00 AM 62.6976 -18.0956 258° West  Level Estimated
Sun 09:48:00 AM 62.6741 -18.3360 258° West  Level Estimated
Sun 09:49:00 AM 62.6502 -18.5759 258° West  Level Estimated
Sun 09:50:00 AM 62.6258 -18.8155 258° West  Level Estimated
Sun 09:51:00 AM 62.6010 -19.0546 257° West  Level Estimated
Sun 09:52:00 AM 62.5759 -19.2934 257° West  Level Estimated
Sun 09:53:00 AM 62.5503 -19.5318 257° West  Level Estimated
Sun 09:54:00 AM 62.5243 -19.7697 257° West  Level Estimated
Sun 09:55:00 AM 62.4979 -20.0072 257° West  Level Estimated
Sun 09:56:00 AM 62.4711 -20.2443 256° West  Level Estimated
Sun 09:57:00 AM 62.4440 -20.4810 256° West  Level Estimated
Sun 09:58:00 AM 62.4164 -20.7173 256° West  Level Estimated
Sun 09:59:00 AM 62.3884 -20.9531 256° West  Level Estimated
Sun 10:00:00 AM 62.3600 -21.1884 256° West  Level Estimated
Sun 10:01:00 AM 62.3312 -21.4233 255° West  Level Estimated
Sun 10:02:00 AM 62.3020 -21.6578 255° West  Level Estimated
Sun 10:03:00 AM 62.2724 -21.8918 255° West  Level Estimated
Sun 10:04:00 AM 62.2425 -22.1253 255° West  Level Estimated
Sun 10:05:00 AM 62.2121 -22.3584 254° West  Level Estimated
Sun 10:06:00 AM 62.1814 -22.5910 254° West  Level Estimated
Sun 10:07:00 AM 62.1502 -22.8231 254° West  Level Estimated
Sun 10:08:00 AM 62.1187 -23.0548 254° West  Level Estimated
Sun 10:09:00 AM 62.0868 -23.2859 254° West  Level Estimated
Sun 10:10:00 AM 62.0545 -23.5166 253° West  Level Estimated
Sun 10:11:00 AM 62.0218 -23.7468 253° West  Level Estimated
Sun 10:12:00 AM 61.9888 -23.9765 253° West  Level Estimated
Sun 10:13:00 AM 61.9553 -24.2056 253° West  Level Estimated
Sun 10:14:00 AM 61.9215 -24.4343 253° West  Level Estimated
Sun 10:15:00 AM 61.8873 -24.6625 252° West  Level Estimated
Sun 10:16:00 AM 61.8527 -24.8902 252° West  Level Estimated
Sun 10:17:00 AM 61.8178 -25.1173 252° West  Level Estimated
Sun 10:18:00 AM 61.7825 -25.3439 252° West  Level Estimated
Sun 10:19:00 AM 61.7468 -25.5700 252° West  Level Estimated
Sun 10:20:00 AM 61.7107 -25.7956 251° West  Level Estimated
Sun 10:21:00 AM 61.6743 -26.0206 251° West  Level Estimated
Sun 10:22:00 AM 61.6375 -26.2451 251° West  Level Estimated
Sun 10:23:00 AM 61.6003 -26.4691 251° West  Level Estimated
Sun 10:24:00 AM 61.5627 -26.6926 251° West  Level Estimated
Sun 10:25:00 AM 61.5248 -26.9154 250° West  Level Estimated
Sun 10:26:00 AM 61.4866 -27.1378 250° West  Level Estimated
Sun 10:27:00 AM 61.4479 -27.3596 250° West  Level Estimated
Sun 10:28:00 AM 61.4090 -27.5808 250° West  Level Estimated
Sun 10:29:00 AM 61.3696 -27.8015 250° West  Level Estimated
Sun 10:30:00 AM 61.3299 -28.0217 249° West  Level Estimated
Sun 10:31:00 AM 61.2898 -28.2412 249° West  Level Estimated
Sun 10:32:00 AM 61.2494 -28.4603 249° West  Level Estimated
Sun 10:33:00 AM 61.2087 -28.6787 249° West  Level Estimated
Sun 10:34:00 AM 61.1676 -28.8966 249° West  Level Estimated
Sun 10:35:00 AM 61.1261 -29.1139 249° West  Level Estimated
Sun 10:36:00 AM 61.0843 -29.3306 248° West  Level Estimated
Sun 10:37:00 AM 61.0421 -29.5468 248° West  Level Estimated
Sun 10:38:00 AM 60.9996 -29.7624 248° West  Level Estimated
Sun 10:39:00 AM 60.9568 -29.9774 248° West  Level Estimated
Sun 10:40:00 AM 60.9136 -30.1918 248° West  Level Estimated
Sun 10:41:00 AM 60.8701 -30.4057 247° West  Level Estimated
Sun 10:42:00 AM 60.8262 -30.6189 247° West  Level Estimated
Sun 10:43:00 AM 60.7820 -30.8316 247° West  Level Estimated
Sun 10:44:00 AM 60.7375 -31.0437 247° West  Level Estimated
Sun 10:45:00 AM 60.6926 -31.2552 247° West  Level Estimated
Sun 10:46:00 AM 60.6474 -31.4661 246° West  Level Estimated
Sun 10:47:00 AM 60.6019 -31.6764 246° West  Level Estimated
Sun 10:48:00 AM 60.5560 -31.8861 246° West  Level Estimated
Sun 10:49:00 AM 60.5098 -32.0953 246° West  Level Estimated
Sun 10:50:00 AM 60.4633 -32.3038 246° West  Level Estimated
Sun 10:51:00 AM 60.4165 -32.5117 246° West  Level Estimated
Sun 10:52:00 AM 60.3693 -32.7190 245° Southwest  Level Estimated
Sun 10:53:00 AM 60.3218 -32.9258 245° Southwest  Level Estimated
Sun 10:54:00 AM 60.2740 -33.1319 245° Southwest  Level Estimated
Sun 10:55:00 AM 60.2259 -33.3374 245° Southwest  Level Estimated
Sun 10:56:00 AM 60.1774 -33.5423 245° Southwest  Level Estimated
Sun 10:57:00 AM 60.1287 -33.7466 244° Southwest  Level Estimated
Sun 10:58:00 AM 60.0796 -33.9503 244° Southwest  Level Estimated
Sun 10:59:00 AM 60.0302 -34.1534 244° Southwest  Level Estimated
Sun 11:00:00 AM 59.9805 -34.3559 244° Southwest  Level Estimated
Sun 11:01:00 AM 59.9305 -34.5578 244° Southwest  Level Estimated
Sun 11:02:00 AM 59.8802 -34.7591 244° Southwest  Level Estimated
Sun 11:03:00 AM 59.8296 -34.9597 243° Southwest  Level Estimated
Sun 11:04:00 AM 59.7787 -35.1598 243° Southwest  Level Estimated
Sun 11:05:00 AM 59.7275 -35.3592 243° Southwest  Level Estimated
Sun 11:06:00 AM 59.6760 -35.5580 243° Southwest  Level Estimated
Sun 11:07:00 AM 59.6241 -35.7562 243° Southwest  Level Estimated
Sun 11:08:00 AM 59.5720 -35.9538 243° Southwest  Level Estimated
Sun 11:09:00 AM 59.5196 -36.1508 242° Southwest  Level Estimated
Sun 11:10:00 AM 59.4669 -36.3472 242° Southwest  Level Estimated
Sun 11:11:00 AM 59.4139 -36.5430 242° Southwest  Level Estimated
Sun 11:12:00 AM 59.3606 -36.7381 242° Southwest  Level Estimated
Sun 11:13:00 AM 59.3070 -36.9327 242° Southwest  Level Estimated
Sun 11:14:00 AM 59.2531 -37.1266 242° Southwest  Level Estimated
Sun 11:15:00 AM 59.1990 -37.3199 241° Southwest  Level Estimated
Sun 11:16:00 AM 59.1445 -37.5126 241° Southwest  Level Estimated
Sun 11:17:00 AM 59.0898 -37.7047 241° Southwest  Level Estimated
Sun 11:18:00 AM 59.0348 -37.8961 241° Southwest  Level Estimated
Sun 11:19:00 AM 58.9795 -38.0870 241° Southwest  Level Estimated
Sun 11:20:00 AM 58.9239 -38.2772 241° Southwest  Level Estimated
Sun 11:21:00 AM 58.8680 -38.4668 240° Southwest  Level Estimated
Sun 11:22:00 AM 58.8119 -38.6558 240° Southwest  Level Estimated
Sun 11:23:00 AM 58.7555 -38.8442 240° Southwest  Level Estimated
Sun 11:24:00 AM 58.6988 -39.0320 240° Southwest  Level Estimated
Sun 11:25:00 AM 58.6418 -39.2192 240° Southwest  Level Estimated
Sun 11:26:00 AM 58.5846 -39.4058 240° Southwest  Level Estimated
Sun 11:27:00 AM 58.5271 -39.5917 239° Southwest  Level Estimated
Sun 11:28:00 AM 58.4693 -39.7771 239° Southwest  Level Estimated
Sun 11:29:00 AM 58.4113 -39.9618 239° Southwest  Level Estimated
Sun 11:30:00 AM 58.3530 -40.1460 239° Southwest  Level Estimated
Sun 11:31:00 AM 58.2944 -40.3295 239° Southwest  Level Estimated
Sun 11:32:00 AM 58.2356 -40.5124 239° Southwest  Level Estimated
Sun 11:33:00 AM 58.1766 -40.6947 238° Southwest  Level Estimated
Sun 11:34:00 AM 58.1172 -40.8764 238° Southwest  Level Estimated
Sun 11:35:00 AM 58.0576 -41.0575 238° Southwest  Level Estimated
Sun 11:36:00 AM 57.9977 -41.2380 238° Southwest  Level Estimated
Sun 11:37:00 AM 57.9376 -41.4179 238° Southwest  Level Estimated
Sun 11:38:00 AM 57.8773 -41.5971 238° Southwest  Level Estimated
Sun 11:39:00 AM 57.8167 -41.7758 238° Southwest  Level Estimated
Sun 11:40:00 AM 66.0000 -50.0000 240° Southwest 428 493 38,000  Level ETMS Enhanced Traffic Management System
Sun 12:02:20 PM 64.3167 -56.2167 233° Southwest 410 472 38,000  Level Gander Center
Sun 12:03:00 PM 64.2382 -56.3960 234° Southwest 428 493 38,000  Level FlightAware Transoceanic
Sun 12:03:20 PM 64.2333 -56.4500 231° Southwest 440 506 38,000  Level Gander Center
Sun 12:04:00 PM 64.1679 -56.6168 234° Southwest 428 493 38,000  Level FlightAware Transoceanic
Sun 12:04:20 PM 64.1667 -56.6500 233° Southwest 450 518 38,000  Level Gander Center
Sun 12:05:00 PM 64.0973 -56.8365 234° Southwest 428 493 38,000  Level FlightAware Transoceanic
Sun 12:05:20 PM 64.0833 -56.9000 233° Southwest 450 518 38,000  Level Gander Center
Sun 12:06:00 PM 64.0263 -57.0550 233° Southwest 428 493 38,000  Level FlightAware Transoceanic
Sun 12:06:20 PM 64.0167 -57.1333 237° Southwest 450 518 38,000  Level Gander Center
Sun 12:08:13 PM 63.8833 -57.5333 233° Southwest 450 518 38,000  Level Gander Center
Sun 12:08:47 PM 63.8333 -57.5833 204° Southwest 440 506 38,000  Level Montreal Center
Sun 12:09:20 PM 63.7833 -57.8000 242° Southwest 450 518 38,000  Level Gander Center
Sun 12:10:20 PM 63.7167 -58.0000 233° Southwest 450 518 38,000  Level Gander Center
Sun 12:11:20 PM 63.6500 -58.2333 237° Southwest 450 518 38,000  Level Gander Center
Sun 12:12:20 PM 63.5667 -58.4500 229° Southwest 450 518 38,000  Level Gander Center
Sun 12:13:20 PM 63.5167 -58.6167 236° Southwest 450 518 38,000  Level Gander Center
Sun 12:14:20 PM 63.4333 -58.8333 229° Southwest 450 518 38,000  Level Gander Center
Sun 12:15:20 PM 63.3500 -59.0667 232° Southwest 450 518 38,000  Level Gander Center
Sun 12:16:20 PM 63.2667 -59.2667 227° Southwest 450 518 38,000  Level Gander Center
Sun 12:17:20 PM 63.1833 -59.4833 230° Southwest 450 518 38,000  Level Gander Center
Sun 12:18:20 PM 63.1333 -59.7000 243° Southwest 450 518 38,000  Level Gander Center
Sun 12:19:20 PM 63.0500 -59.9333 232° Southwest 450 518 38,000  Level Gander Center
Sun 12:20:20 PM 63.0000 -60.1500 243° Southwest 450 518 38,000  Level Gander Center
Sun 12:21:20 PM 62.9500 -60.4500 250° West 450 518 38,000  Level Gander Center
Sun 12:22:20 PM 62.9167 -60.6667 251° West 450 518 38,000  Level Gander Center
Sun 12:23:20 PM 62.8667 -60.9500 249° West 450 518 38,000  Level Gander Center
Sun 12:24:20 PM 62.8167 -61.2167 248° West 440 506 38,000  Level Gander Center
Sun 12:25:20 PM 62.7833 -61.4667 254° West 450 518 38,000  Level Gander Center
Sun 12:26:20 PM 62.7333 -61.7167 247° West 450 518 38,000  Level Gander Center
Sun 12:27:20 PM 62.6833 -62.0000 249° West 460 529 38,000  Level Gander Center
Sun 12:28:20 PM 62.6333 -62.2500 247° West 460 529 38,000  Level Gander Center
Sun 12:29:20 PM 62.6000 -62.5000 254° West 450 518 38,000  Level Gander Center
Sun 12:30:20 PM 62.5667 -62.7500 254° West 450 518 38,000  Level Gander Center
Sun 12:31:20 PM 62.5167 -63.0000 247° West 450 518 38,000  Level Gander Center
Sun 12:32:20 PM 62.4833 -63.2500 254° West 450 518 38,000  Level Gander Center
Sun 12:33:20 PM 62.4167 -63.5000 240° Southwest 450 518 38,000  Level Gander Center
Sun 12:34:20 PM 62.3833 -63.7500 254° West 450 518 38,000  Level Gander Center
Sun 12:35:20 PM 62.3333 -64.0000 247° West 450 518 38,000  Level Gander Center
Sun 12:36:20 PM 62.2833 -64.2833 249° West 450 518 38,000  Level Gander Center
Sun 12:37:20 PM 62.2333 -64.5167 245° Southwest 450 518 38,000  Level Gander Center
Sun 12:38:20 PM 62.1833 -64.7667 247° West 450 518 38,000  Level Gander Center
Sun 12:39:20 PM 62.1500 -65.0167 254° West 450 518 38,000  Level Gander Center
Sun 12:40:20 PM 62.0833 -65.2500 239° Southwest 440 506 38,000  Level Gander Center
Sun 12:41:20 PM 62.0500 -65.5000 254° West 460 529 38,000  Level Gander Center
Sun 12:42:20 PM 62.0000 -65.7000 242° Southwest 440 506 38,000  Level Gander Center
Sun 12:43:20 PM 61.9333 -65.9667 242° Southwest 450 518 38,000  Level Gander Center
Sun 12:44:20 PM 61.9000 -66.2167 254° West 450 518 38,000  Level Gander Center
Sun 12:45:20 PM 61.8333 -66.4500 239° Southwest 450 518 38,000  Level Gander Center
Sun 12:46:20 PM 61.8000 -66.6833 253° West 450 518 38,000  Level Gander Center
Sun 12:47:20 PM 61.7167 -66.9167 233° Southwest 460 529 38,000  Level Gander Center
Sun 12:48:20 PM 61.6167 -67.0833 218° Southwest 460 529 38,000  Level Gander Center
Sun 12:49:20 PM 61.5000 -67.2333 212° Southwest 470 541 38,000  Level Gander Center
Sun 12:50:47 PM 61.3500 -67.3333 198° South 470 541 38,000  Level Montreal Center
Sun 12:51:47 PM 61.2333 -67.4833 212° Southwest 460 529 38,000  Level Montreal Center
Sun 12:52:47 PM 61.1167 -67.5833 202° Southwest 460 529 38,000  Level Montreal Center
Sun 12:53:47 PM 61.0000 -67.7167 209° Southwest 470 541 38,000  Level Montreal Center
Sun 12:54:47 PM 60.8833 -67.8500 209° Southwest 470 541 38,000  Level Montreal Center
Sun 12:55:47 PM 60.7667 -67.9333 199° South 470 541 38,000  Level Montreal Center
Sun 12:56:47 PM 60.6500 -68.0667 209° Southwest 470 541 38,000  Level Montreal Center
Sun 12:57:20 PM 60.5833 -68.2000 225° Southwest 470 541 38,000  Level Gander Center
Sun 12:58:20 PM 60.4667 -68.3000 203° Southwest 470 541 38,000  Level Gander Center
Sun 12:59:20 PM 60.3500 -68.4167 206° Southwest 470 541 38,000  Level Gander Center
Sun 01:00:20 PM 60.2333 -68.5167 203° Southwest 470 541 38,000  Level Gander Center
Sun 01:01:20 PM 60.1167 -68.6333 206° Southwest 470 541 38,000  Level Gander Center
Sun 01:02:20 PM 60.0000 -68.7500 207° Southwest 480 552 38,000  Level Gander Center
Sun 01:03:20 PM 59.8667 -68.8833 207° Southwest 470 541 38,000  Level Gander Center
Sun 01:04:20 PM 59.7500 -68.9833 203° Southwest 470 541 38,000  Level Gander Center
Sun 01:05:20 PM 59.6500 -69.1000 211° Southwest 480 552 38,000  Level Gander Center
Sun 01:06:20 PM 59.5167 -69.2000 201° Southwest 470 541 38,000  Level Gander Center
Sun 01:07:20 PM 59.4000 -69.3000 204° Southwest 470 541 38,000  Level Gander Center
Sun 01:08:20 PM 59.2833 -69.4167 207° Southwest 470 541 38,000  Level Gander Center
Sun 01:09:20 PM 59.1667 -69.5167 204° Southwest 470 541 38,000  Level Gander Center
Sun 01:10:20 PM 59.0500 -69.6500 210° Southwest 470 541 38,000  Level Gander Center
Sun 01:11:20 PM 58.9167 -69.7500 201° Southwest 470 541 38,000  Level Gander Center
Sun 01:12:20 PM 58.8167 -69.8500 207° Southwest 470 541 38,000  Level Gander Center
Sun 01:13:47 PM 58.6333 -69.9500 196° South 470 541 38,000  Level Montreal Center
Sun 01:14:47 PM 58.5167 -70.0667 208° Southwest 470 541 38,000  Level Montreal Center
Sun 01:15:47 PM 58.4000 -70.1500 201° Southwest 470 541 38,000  Level Montreal Center
Sun 01:16:47 PM 58.2833 -70.2667 208° Southwest 470 541 38,000  Level Montreal Center
Sun 01:17:47 PM 58.1667 -70.3500 201° Southwest 470 541 38,000  Level Montreal Center
Sun 01:18:47 PM 58.0333 -70.4667 205° Southwest 470 541 38,000  Level Montreal Center
Sun 01:19:47 PM 57.9167 -70.5667 204° Southwest 470 541 38,000  Level Montreal Center
Sun 01:20:47 PM 57.7833 -70.6500 198° South 470 541 38,000  Level Montreal Center
Sun 01:21:47 PM 57.6833 -70.7667 212° Southwest 470 541 38,000  Level Montreal Center
Sun 01:22:47 PM 57.5667 -70.8833 208° Southwest 470 541 38,000  Level Montreal Center
Sun 01:23:47 PM 57.4333 -70.9667 199° South 470 541 38,000  Level Montreal Center
Sun 01:24:47 PM 57.3167 -71.0667 205° Southwest 470 541 38,000  Level Montreal Center
Sun 01:25:47 PM 57.2000 -71.1500 201° Southwest 470 541 38,000  Level Montreal Center
Sun 01:26:47 PM 57.0667 -71.2500 202° Southwest 470 541 38,000  Level Montreal Center
Sun 01:27:47 PM 56.9667 -71.3667 212° Southwest 470 541 38,000  Level Montreal Center
Sun 01:28:47 PM 56.8500 -71.4333 197° South 480 552 38,000  Level Montreal Center
Sun 01:29:47 PM 56.7167 -71.5500 206° Southwest 480 552 38,000  Level Montreal Center
Sun 01:30:47 PM 56.5833 -71.6500 202° Southwest 470 541 38,000  Level Montreal Center
Sun 01:31:47 PM 56.4500 -71.7333 199° South 470 541 38,000  Level Montreal Center
Sun 01:32:47 PM 56.3333 -71.8333 205° Southwest 470 541 38,000  Level Montreal Center
Sun 01:33:47 PM 56.2167 -71.9000 198° South 480 552 38,000  Level Montreal Center
Sun 01:34:47 PM 56.0833 -72.0167 206° Southwest 480 552 38,000  Level Montreal Center
Sun 01:35:47 PM 55.9667 -72.1167 206° Southwest 470 541 38,000  Level Montreal Center
Sun 01:36:47 PM 55.8333 -72.1833 196° South 470 541 38,000  Level Montreal Center
Sun 01:37:47 PM 55.7333 -72.2833 209° Southwest 470 541 38,000  Level Montreal Center
Sun 01:38:48 PM 55.6167 -72.3833 206° Southwest 470 541 38,000  Level Montreal Center
Sun 01:39:47 PM 55.4833 -72.4500 196° South 470 541 38,000  Level Montreal Center
Sun 01:40:47 PM 55.3667 -72.5500 206° Southwest 470 541 38,000  Level Montreal Center
Sun 01:41:47 PM 55.2333 -72.6333 200° South 470 541 38,000  Level Montreal Center
Sun 01:42:47 PM 55.1167 -72.7167 202° Southwest 480 552 38,000  Level Montreal Center
Sun 01:43:47 PM 55.0000 -72.8167 206° Southwest 480 552 38,000  Level Montreal Center
Sun 01:44:47 PM 54.8667 -72.8833 196° South 480 552 38,000  Level Montreal Center
Sun 01:45:47 PM 54.7333 -72.9833 203° Southwest 480 552 38,000  Level Montreal Center
Sun 01:46:47 PM 54.6167 -73.0833 206° Southwest 480 552 38,000  Level Montreal Center
Sun 01:47:47 PM 54.4833 -73.1833 204° Southwest 480 552 38,000  Level Montreal Center
Sun 01:48:47 PM 54.3667 -73.2500 198° South 480 552 38,000  Level Montreal Center
Sun 01:49:47 PM 54.2333 -73.3333 200° South 480 552 38,000  Level Montreal Center
Sun 01:50:47 PM 54.1167 -73.4333 207° Southwest 480 552 38,000  Level Montreal Center
Sun 01:51:47 PM 53.9833 -73.5000 196° South 480 552 38,000  Level Montreal Center
Sun 01:52:47 PM 53.8667 -73.6000 207° Southwest 480 552 38,000  Level Montreal Center
Sun 01:53:47 PM 53.7333 -73.6500 193° South 480 552 38,000  Level Montreal Center
Sun 01:54:47 PM 53.6167 -73.7833 214° Southwest 480 552 38,000  Level Montreal Center
Sun 01:55:47 PM 53.5000 -73.8667 203° Southwest 480 552 38,000  Level Montreal Center
Sun 01:56:47 PM 53.3833 -73.9667 207° Southwest 480 552 38,000  Level Montreal Center
Sun 01:57:47 PM 53.2667 -74.0833 211° Southwest 480 552 38,000  Level Montreal Center
Sun 01:58:47 PM 53.1333 -74.1667 201° Southwest 480 552 38,000  Level Montreal Center
Sun 01:59:47 PM 53.0000 -74.2833 208° Southwest 480 552 38,000  Level Montreal Center
Sun 02:00:47 PM 52.8833 -74.3667 203° Southwest 480 552 38,000  Level Montreal Center
Sun 02:01:47 PM 52.7667 -74.4667 207° Southwest 480 552 38,000  Level Montreal Center
Sun 02:02:47 PM 52.6667 -74.5833 215° Southwest 480 552 38,000  Level Montreal Center
Sun 02:03:47 PM 52.5500 -74.6667 203° Southwest 490 564 38,000  Level Montreal Center
Sun 02:04:47 PM 52.4000 -74.7500 199° South 480 552 38,000  Level Montreal Center
Sun 02:05:47 PM 52.3000 -74.8667 216° Southwest 480 552 38,000  Level Montreal Center
Sun 02:06:47 PM 52.1667 -74.9500 201° Southwest 480 552 38,000  Level Montreal Center
Sun 02:07:47 PM 52.0500 -75.0333 204° Southwest 480 552 38,000  Level Montreal Center
Sun 02:08:47 PM 51.9167 -75.1500 208° Southwest 480 552 38,000  Level Montreal Center
Sun 02:09:47 PM 51.8000 -75.2333 204° Southwest 480 552 38,000  Level Montreal Center
Sun 02:10:47 PM 51.6833 -75.3333 208° Southwest 480 552 38,000  Level Montreal Center
Sun 02:11:47 PM 51.5667 -75.4167 204° Southwest 470 541 38,000  Level Montreal Center
Sun 02:12:47 PM 51.4500 -75.5000 204° Southwest 470 541 38,000  Level Montreal Center
Sun 02:13:47 PM 51.3167 -75.6167 209° Southwest 480 552 38,000  Level Montreal Center
Sun 02:14:47 PM 51.2000 -75.7000 204° Southwest 480 552 38,000  Level Montreal Center
Sun 02:15:47 PM 51.0833 -75.7833 204° Southwest 480 552 38,000  Level Montreal Center
Sun 02:16:47 PM 50.9667 -75.8833 208° Southwest 480 552 38,000  Level Montreal Center
Sun 02:17:47 PM 50.8333 -75.9667 202° Southwest 480 552 38,000  Level Montreal Center
Sun 02:18:47 PM 50.7333 -76.0500 208° Southwest 480 552 38,000  Level Montreal Center
Sun 02:19:47 PM 50.6000 -76.1500 205° Southwest 480 552 38,000  Level Montreal Center
Sun 02:20:47 PM 50.4833 -76.2333 204° Southwest 480 552 38,000  Level Montreal Center
Sun 02:21:47 PM 50.3667 -76.3000 200° South 480 552 38,000  Level Montreal Center
Sun 02:22:47 PM 50.2333 -76.4167 209° Southwest 480 552 38,000  Level Montreal Center
Sun 02:23:47 PM 50.1000 -76.4833 198° South 480 552 38,000  Level Montreal Center
Sun 02:24:47 PM 49.9833 -76.6000 213° Southwest 470 541 38,000  Level Montreal Center
Sun 02:25:47 PM 49.8667 -76.6667 200° South 470 541 38,000  Level Montreal Center
Sun 02:26:47 PM 49.7500 -76.7500 205° Southwest 480 552 38,000  Level Montreal Center
Sun 02:27:47 PM 49.6333 -76.8500 209° Southwest 480 552 38,000  Level Montreal Center
Sun 02:28:47 PM 49.5167 -76.9167 200° South 450 518 38,000  Level Montreal Center
Sun 02:29:47 PM 49.3833 -77.0000 202° Southwest 490 564 38,000  Level Montreal Center
Sun 02:30:47 PM 49.2667 -77.1000 209° Southwest 460 529 38,000  Level Montreal Center
Sun 02:31:47 PM 49.1500 -77.1667 200° South 460 529 38,000  Level Montreal Center
Sun 02:32:47 PM 49.0500 -77.2500 209° Southwest 460 529 38,000  Level Montreal Center
Sun 02:33:47 PM 48.9000 -77.3167 196° South 460 529 38,000  Level Montreal Center
Sun 02:34:47 PM 48.8000 -77.4000 209° Southwest 460 529 38,000  Level Montreal Center
Sun 02:35:47 PM 48.6667 -77.5000 206° Southwest 460 529 38,000  Level Montreal Center
Sun 02:36:47 PM 48.5500 -77.5667 201° Southwest 470 541 38,000  Level Montreal Center
Sun 02:37:47 PM 48.4500 -77.6333 204° Southwest 470 541 38,000  Level Montreal Center
Sun 02:38:47 PM 48.3167 -77.7333 207° Southwest 470 541 38,000  Level Montreal Center
Sun 02:39:47 PM 48.2000 -77.8000 201° Southwest 470 541 38,000  Level Montreal Center
Sun 02:40:47 PM 48.0833 -77.8833 206° Southwest 470 541 38,000  Level Montreal Center
Sun 02:41:47 PM 47.9500 -77.9500 199° South 470 541 38,000  Level Montreal Center
Sun 02:42:47 PM 47.8167 -78.0167 199° South 470 541 38,000  Level Montreal Center
Sun 02:43:47 PM 47.7000 -78.0833 201° Southwest 470 541 38,000  Level Montreal Center
Sun 02:44:47 PM 47.5833 -78.1500 201° Southwest 480 552 38,000  Level Montreal Center
Sun 02:45:47 PM 47.4500 -78.2333 203° Southwest 480 552 38,000  Level Montreal Center
Sun 02:46:47 PM 47.3333 -78.3000 201° Southwest 480 552 38,000  Level Montreal Center
Sun 02:47:47 PM 47.2167 -78.3833 206° Southwest 470 541 38,000  Level Montreal Center
Sun 02:48:47 PM 47.0833 -78.4500 199° South 470 541 38,000  Level Montreal Center
Sun 02:49:47 PM 46.9500 -78.5167 199° South 470 541 38,000  Level Montreal Center
Sun 02:55:14 PM 46.2934 -78.8884 201° Southwest 481 554 38,000  Level FlightAware ADS-B (CYYZ)
Sun 02:55:43 PM 46.2327 -78.9215 201° Southwest 481 554 38,000  Level FlightAware ADS-B (CYYZ)
Sun 02:56:14 PM 46.1626 -78.9597 201° Southwest 480 552 38,000  Level FlightAware ADS-B (CYYZ)
Sun 02:56:44 PM 46.1025 -78.9922 201° Southwest 479 551 38,000  Level FlightAware ADS-B (CYYZ)
Sun 02:57:13 PM 46.0409 -79.0255 201° Southwest 478 550 38,000  Level FlightAware ADS-B (CYYZ)
Sun 02:57:44 PM 45.9783 -79.0593 201° Southwest 477 549 38,000  Level FlightAware ADS-B (CYYZ)
Sun 02:58:14 PM 45.9160 -79.0928 201° Southwest 476 548 38,000  Level FlightAware ADS-B (CYYZ)
Sun 02:58:45 PM 45.8528 -79.1268 201° Southwest 476 548 38,000  Level FlightAware ADS-B (CYYZ)
Sun 02:59:15 PM 45.8046 -79.1526 201° Southwest 475 547 38,000  Level FlightAware ADS-B (CYYZ)
Sun 02:59:44 PM 45.7389 -79.1878 201° Southwest 475 547 38,000  Level FlightAware ADS-B (CYYZ)
Sun 03:00:14 PM 45.6720 -79.2237 201° Southwest 475 547 38,000  Level FlightAware ADS-B (CYYZ)
Sun 03:00:44 PM 45.6081 -79.2587 201° Southwest 474 545 38,000  Level FlightAware ADS-B (CYYZ)
Sun 03:01:28 PM 45.5288 -79.3189 209° Southwest 466 536 38,000  Level FlightAware ADS-B (CYYZ)
Sun 03:01:58 PM 45.4698 -79.3641 209° Southwest 467 537 38,000  Level FlightAware ADS-B (CYYZ)
Sun 03:02:29 PM 45.4382 -79.3884 209° Southwest 467 537 38,000  Level FlightAware ADS-B (CYYZ)
Sun 03:03:00 PM 45.3515 -79.4549 209° Southwest 467 537 38,000  Level FlightAware ADS-B (CYYZ)
Sun 03:03:28 PM 45.2996 -79.4946 209° Southwest 468 539 38,000  Level FlightAware ADS-B (CYYZ)
Sun 03:03:59 PM 45.2474 -79.5345 209° Southwest 468 539 38,000  Level FlightAware ADS-B (CYYZ)
Sun 03:04:21 PM 45.3243 -79.4757 209° Southwest 459 528 38,000  Level FlightAware ADS-B (EPGD / GDN)
Sun 03:06:12 PM 44.9942 -79.7268 209° Southwest 471 542 38,000  Level FlightAware ADS-B (CYYZ)
Sun 03:06:44 PM 44.9254 -79.7787 209° Southwest 469 540 38,000  Level FlightAware ADS-B (CYYZ)
Sun 03:07:14 PM 44.8672 -79.8224 209° Southwest 469 540 38,000  Level FlightAware ADS-B (CYYZ)
Sun 03:07:44 PM 44.8090 -79.8661 209° Southwest 469 540 38,000  Level FlightAware ADS-B (CYYZ)
Sun 03:08:15 PM 44.7518 -79.9091 209° Southwest 468 539 38,000  Level FlightAware ADS-B (CYYZ)
Sun 03:08:44 PM 44.6953 -79.9512 209° Southwest 467 537 38,000  Level FlightAware ADS-B (CYYZ)
Sun 03:09:15 PM 44.6377 -79.9939 208° Southwest 466 536 38,000  Level FlightAware ADS-B (CYYZ)
Sun 03:09:45 PM 44.5807 -80.0364 209° Southwest 465 535 38,000  Level FlightAware ADS-B (CYYZ)
Sun 03:09:52 PM 44.5677 -80.0460 208° Southwest 464 534 38,000  Level FlightAware ADS-B (CYKF)
Sun 03:10:15 PM 44.5260 -80.0770 208° Southwest 465 535 38,000  Level FlightAware ADS-B (CYYZ)
Sun 03:10:45 PM 44.4675 -80.1202 208° Southwest 466 536 38,000  Level FlightAware ADS-B (CYYZ)
Sun 03:10:48 PM 44.5714 -80.0433 209° Southwest 457 526 38,000  Level FlightAware ADS-B (EPGD / GDN)
Sun 03:11:15 PM 44.4099 -80.1628 208° Southwest 466 536 38,000  Level FlightAware ADS-B (CYYZ)
Sun 03:11:44 PM 44.3529 -80.2048 208° Southwest 466 536 38,000  Level FlightAware ADS-B (CYYZ)
Sun 03:12:14 PM 44.2963 -80.2466 208° Southwest 465 535 38,000  Level FlightAware ADS-B (CYYZ)
Sun 03:12:44 PM 44.2397 -80.2882 208° Southwest 463 533 38,000  Level FlightAware ADS-B (CYYZ)
Sun 03:13:04 PM 44.2034 -80.3148 207° Southwest 463 533 38,000  Level FlightAware ADS-B (CYKF)
Sun 03:13:14 PM 44.1827 -80.3296 208° Southwest 463 533 38,000  Level FlightAware ADS-B (CYYZ)
Sun 03:13:45 PM 44.1258 -80.3711 208° Southwest 463 533 38,000  Level FlightAware ADS-B (CYYZ)
Sun 03:14:05 PM 44.1330 -80.3658 208° Southwest 463 533 38,000  Level FlightAware ADS-B (CYKF)
Sun 03:14:15 PM 44.0887 -80.3983 208° Southwest 463 533 38,000  Level FlightAware ADS-B (CYYZ)
Sun 03:14:44 PM 44.0128 -80.4535 208° Southwest 464 534 38,000  Level FlightAware ADS-B (CYYZ)
Sun 03:15:04 PM 43.9795 -80.4777 208° Southwest 464 534 38,000  Level FlightAware ADS-B (CYKF)
Sun 03:15:14 PM 43.9627 -80.4899 208° Southwest 465 535 38,000  Level FlightAware ADS-B (CYYZ)
Sun 03:15:44 PM 43.9034 -80.5329 208° Southwest 466 536 38,000  Level FlightAware ADS-B (CYYZ)
Sun 03:15:57 PM 43.9233 -80.5185 208° Southwest 466 536 38,000  Level FlightAware ADS-B (CYKF)
Sun 03:16:15 PM 43.8437 -80.5762 208° Southwest 467 537 38,000  Level FlightAware ADS-B (CYYZ)
Sun 03:16:44 PM 43.7918 -80.6137 208° Southwest 469 540 38,000  Level FlightAware ADS-B (CYYZ)
Sun 03:17:03 PM 43.7484 -80.6449 207° Southwest 469 540 38,000  Level FlightAware ADS-B (CYKF)
Sun 03:17:14 PM 43.7287 -80.6590 208° Southwest 470 541 38,000  Level FlightAware ADS-B (CYYZ)
Sun 03:17:44 PM 43.6696 -80.7013 208° Southwest 470 541 38,000  Level FlightAware ADS-B (CYYZ)
Sun 03:17:47 PM 43.7205 -80.6649 207° Southwest 470 541 38,000  Level FlightAware ADS-B (CYKF)
Sun 03:18:14 PM 43.6162 -80.7395 208° Southwest 470 541 38,000  Level FlightAware ADS-B (CYYZ)
Sun 03:18:44 PM 43.5596 -80.7800 208° Southwest 470 541 38,000  Level FlightAware ADS-B (CYYZ)
Sun 03:19:03 PM 43.5200 -80.8083 207° Southwest 470 541 38,000  Level FlightAware ADS-B (CYKF)
Sun 03:19:14 PM 43.4971 -80.8246 208° Southwest 470 541 38,000  Level FlightAware ADS-B (CYYZ)
Sun 03:19:44 PM 43.4425 -80.8634 208° Southwest 470 541 38,000  Level FlightAware ADS-B (CYYZ)
Sun 03:20:00 PM 43.4080 -80.8879 207° Southwest 468 539 38,000  Level FlightAware ADS-B (CYKF)
Sun 03:20:14 PM 43.4059 -80.8893 208° Southwest 469 540 38,000  Level FlightAware ADS-B (CYYZ)
Sun 03:20:44 PM 43.3271 -80.9452 208° Southwest 469 540 38,000  Level FlightAware ADS-B (CYYZ)
Sun 03:21:14 PM 43.2853 -80.9749 208° Southwest 469 540 38,000  Level FlightAware ADS-B (CYYZ)
Sun 03:21:45 PM 43.2068 -81.0303 208° Southwest 470 541 38,000  Level FlightAware ADS-B (CYYZ)
Sun 03:22:05 PM 43.1698 -81.0563 207° Southwest 470 541 38,000  Level FlightAware ADS-B (CYKF)
Sun 03:22:15 PM 43.1507 -81.0698 208° Southwest 471 542 38,000  Level FlightAware ADS-B (CYYZ)
Sun 03:22:44 PM 43.0907 -81.1120 208° Southwest 472 543 38,000  Level FlightAware ADS-B (CYYZ)
Sun 03:23:10 PM 43.0961 -81.1082 207° Southwest 471 542 38,000  Level FlightAware ADS-B (CYKF)
Sun 03:23:15 PM 43.0328 -81.1525 208° Southwest 472 543 38,000  Level FlightAware ADS-B (CYYZ)
Sun 03:23:44 PM 42.9738 -81.1908 204° Southwest 477 549 38,000  Level FlightAware ADS-B (CYYZ)
Sun 03:24:03 PM 42.9377 -81.2123 204° Southwest 477 549 38,000  Level FlightAware ADS-B (CYKF)
Sun 03:24:15 PM 42.9128 -81.2272 204° Southwest 477 549 38,000  Level FlightAware ADS-B (CYYZ)
Sun 03:24:45 PM 42.8540 -81.2629 205° Southwest 476 548 38,000  Level FlightAware ADS-B (CYYZ)
Sun 03:24:54 PM 42.8900 -81.2410 204° Southwest 475 547 38,000  Level FlightAware ADS-B (CYKF)
Sun 03:25:15 PM 42.7930 -81.3003 205° Southwest 475 547 38,000  Level FlightAware ADS-B (CYYZ)
Sun 03:25:44 PM 42.7338 -81.3368 205° Southwest 474 545 38,000  Level FlightAware ADS-B (CYYZ)
Sun 03:26:09 PM 42.7099 -81.3514 204° Southwest 474 545 38,000  Level FlightAware ADS-B (CYKF)
Sun 03:26:14 PM 42.6734 -81.3738 205° Southwest 475 547 38,000  Level FlightAware ADS-B (CYYZ)
Sun 03:26:44 PM 42.6138 -81.4102 205° Southwest 473 544 38,000  Level FlightAware ADS-B (CYYZ)
Sun 03:27:08 PM 42.5666 -81.4390 204° Southwest 473 544 38,000  Level FlightAware ADS-B (CYKF)
Sun 03:27:14 PM 42.5539 -81.4468 205° Southwest 474 545 38,000  Level FlightAware ADS-B (CYYZ)
Sun 03:27:44 PM 42.4934 -81.4836 205° Southwest 474 545 38,000  Level FlightAware ADS-B (CYYZ)
Sun 03:27:56 PM 42.5296 -81.4616 204° Southwest 473 544 38,000  Level FlightAware ADS-B (CYKF)
Sun 03:28:14 PM 42.4347 -81.5192 205° Southwest 473 544 38,000  Level FlightAware ADS-B (CYYZ)
Sun 03:28:44 PM 42.3816 -81.5515 205° Southwest 471 542 38,000  Level FlightAware ADS-B (CYYZ)
Sun 03:29:14 PM 42.3157 -81.5914 205° Southwest 470 541 38,000  Level FlightAware ADS-B (CYYZ)
Sun 03:29:45 PM 42.2596 -81.6253 205° Southwest 469 540 38,000  Level FlightAware ADS-B (CYYZ)
Sun 03:30:14 PM 42.1960 -81.6638 205° Southwest 469 540 38,000  Level FlightAware ADS-B (CYYZ)
Sun 03:30:45 PM 42.1366 -81.6996 205° Southwest 469 540 38,000  Level FlightAware ADS-B (CYYZ)
Sun 03:31:15 PM 42.0772 -81.7354 205° Southwest 470 541 38,000  Level FlightAware ADS-B (CYYZ)
Sun 03:31:45 PM 42.0177 -81.7711 205° Southwest 470 541 38,000  Level FlightAware ADS-B (CYYZ)
Sun 03:32:15 PM 41.9595 -81.8060 205° Southwest 469 540 38,000  Level FlightAware ADS-B (CYYZ)
Sun 03:32:44 PM 41.9002 -81.8415 205° Southwest 467 537 38,000  Level FlightAware ADS-B (CYYZ)
Sun 03:33:15 PM 41.8419 -81.8761 205° Southwest 465 535 38,000  Level FlightAware ADS-B (CYYZ)
Sun 03:33:45 PM 41.7818 -81.9119 205° Southwest 463 533 38,000  Level FlightAware ADS-B (CYYZ)
Sun 03:34:13 PM 41.7382 -81.9379 205° Southwest 462 532 38,000  Level FlightAware ADS-B (CYYZ)
Sun 03:34:44 PM 41.6713 -81.9777 205° Southwest 462 532 38,000  Level FlightAware ADS-B (CYYZ)
Sun 03:35:13 PM 41.6187 -82.0088 204° Southwest 461 531 38,000  Level FlightAware ADS-B (CYYZ)
Sun 03:35:45 PM 41.5486 -82.0500 204° Southwest 461 531 38,000  Level FlightAware ADS-B (CYYZ)
Sun 03:36:14 PM 41.4925 -82.0829 204° Southwest 462 532 38,000  Level FlightAware ADS-B (CYYZ)
Sun 03:36:44 PM 41.4345 -82.1172 204° Southwest 464 534 38,000  Level FlightAware ADS-B (CYYZ)
Sun 03:37:14 PM 41.3753 -82.1513 203° Southwest 466 536 38,000  Level FlightAware ADS-B (CYYZ)
Sun 03:38:04 PM 41.2695 -82.1918 196° South 474 545 38,000  Level FlightAware ADS-B (CYYZ)
Sun 03:38:40 PM 41.2017 -82.2175 196° South 472 543 38,000  Level Indianapolis Center
Sun 03:39:42 PM 41.0747 -82.2644 196° South 472 543 38,000  Level Indianapolis Center
Sun 03:45:37 PM 40.3768 -82.5099 195° South 472 543 38,000  Level FlightAware ADS-B
Sun 03:46:47 PM 40.1643 -82.5807 190° South 477 549 38,000  Level FlightAware ADS-B
Sun 03:47:32 PM 40.0630 -82.5927 183° South 485 558 38,000  Level FlightAware ADS-B
Sun 03:48:17 PM 39.9635 -82.6008 184° South 484 557 38,000  Level FlightAware ADS-B
Sun 03:49:01 PM 39.8656 -82.6078 183° South 486 559 38,000  Level FlightAware ADS-B
Sun 03:49:34 PM 39.7914 -82.6129 183° South 486 559 38,000  Level FlightAware ADS-B
Sun 03:50:14 PM 39.7790 -82.6137 183° South 485 558 38,000  Level FlightAware ADS-B
Sun 03:50:50 PM 39.6389 -82.6232 183° South 487 560 38,000  Level FlightAware ADS-B
Sun 03:51:32 PM 39.5265 -82.6308 183° South 489 563 38,000  Level FlightAware ADS-B
Sun 03:52:02 PM 39.4643 -82.6349 183° South 490 564 38,000  Level FlightAware ADS-B
Sun 03:52:33 PM 39.3885 -82.6400 183° South 491 565 38,000  Level FlightAware ADS-B
Sun 03:53:04 PM 39.3217 -82.6445 183° South 492 566 38,000  Level FlightAware ADS-B
Sun 03:53:45 PM 39.2374 -82.6502 183° South 491 565 38,000  Level FlightAware ADS-B
Sun 03:54:16 PM 39.1572 -82.6555 183° South 489 563 38,000  Level FlightAware ADS-B
Sun 03:54:47 PM 39.0872 -82.6601 183° South 484 557 38,000  Level FlightAware ADS-B
Sun 03:55:19 PM 39.0250 -82.6642 183° South 481 554 38,000  Level FlightAware ADS-B
Sun 03:55:50 PM 38.9532 -82.6689 183° South 479 551 38,000  Level FlightAware ADS-B
Sun 03:56:33 PM 38.8525 -82.6756 183° South 472 543 38,000  Level FlightAware ADS-B
Sun 03:57:12 PM 38.7667 -82.6812 183° South 470 541 38,000  Level FlightAware ADS-B
Sun 03:57:47 PM 38.6900 -82.6861 183° South 469 540 38,000  Level FlightAware ADS-B
Sun 03:58:29 PM 38.6179 -82.6908 183° South 470 541 38,000  Level FlightAware ADS-B
Sun 03:59:21 PM 38.5094 -82.6983 183° South 471 542 38,000  Level Indianapolis Center
Sun 04:00:23 PM 38.3572 -82.7072 183° South 471 542 38,000  Level Indianapolis Center
Sun 04:01:26 PM 38.2256 -82.7178 184° South 471 542 38,000  Level Indianapolis Center
Sun 04:02:28 PM 38.0956 -82.7253 183° South 470 541 38,000  Level Indianapolis Center
Sun 04:03:30 PM 37.9642 -82.7356 184° South 470 541 38,000  Level Indianapolis Center
Sun 04:04:32 PM 37.8322 -82.7428 182° South 471 542 38,000  Level Indianapolis Center
Sun 04:05:34 PM 37.6819 -82.7647 187° South 468 539 38,000  Level Indianapolis Center
Sun 04:06:36 PM 37.5697 -82.8225 202° Southwest 441 507 38,000  Level Indianapolis Center
Sun 04:07:38 PM 37.4644 -82.8925 208° Southwest 430 495 38,000  Level Indianapolis Center
Sun 04:08:40 PM 37.3586 -82.9636 208° Southwest 430 495 38,000  Level Indianapolis Center
Sun 04:09:42 PM 37.2517 -83.0322 207° Southwest 431 496 38,000  Level Indianapolis Center
Sun 04:10:44 PM 37.1272 -83.1125 207° Southwest 431 496 38,000  Level Indianapolis Center
Sun 04:11:46 PM 37.0222 -83.1817 208° Southwest 432 497 38,000  Level Indianapolis Center
Sun 04:12:49 PM 36.9169 -83.2503 208° Southwest 429 494 38,000  Level Indianapolis Center
Sun 04:13:51 PM 36.8114 -83.3172 207° Southwest 429 494 38,000  Level Indianapolis Center
Sun 04:14:53 PM 36.6875 -83.3967 207° Southwest 429 494 38,000  Level Indianapolis Center
Sun 04:15:55 PM 36.5814 -83.4647 207° Southwest 429 494 38,000  Level Indianapolis Center
Sun 04:16:57 PM 36.4803 -83.5283 207° Southwest 429 494 38,000  Level Indianapolis Center
Sun 04:17:59 PM 36.3756 -83.5953 207° Southwest 426 490 38,000  Level Indianapolis Center
Sun 04:19:01 PM 36.2506 -83.6733 207° Southwest 421 484 38,000  Level Indianapolis Center
Sun 04:20:03 PM 36.1486 -83.7400 208° Southwest 418 481 38,000  Level Indianapolis Center
Sun 04:20:46 PM 36.0850 -83.7817 208° Southwest 416 479 38,000  Level Atlanta Center
Sun 04:21:46 PM 35.9831 -83.8464 207° Southwest 416 479 38,000  Level Atlanta Center
Sun 04:22:46 PM 35.8747 -83.9003 202° Southwest 416 479 38,000  Level Atlanta Center
Sun 04:27:24 PM 35.2984 -84.0418 191° South 429 494 38,000  Level FlightAware ADS-B (KDZJ)
Sun 04:28:05 PM 35.2174 -84.0612 191° South 430 495 38,000  Level FlightAware ADS-B (KDZJ)
Sun 04:29:03 PM 35.1005 -84.0891 191° South 439 505 38,000  Level FlightAware ADS-B (KDZJ)
Sun 04:29:43 PM 35.0214 -84.1081 191° South 439 505 38,000  Level FlightAware ADS-B (KDZJ)
Sun 04:30:18 PM 34.9518 -84.1247 191° South 441 507 38,000  Level FlightAware ADS-B (KDZJ)
Sun 04:31:05 PM 34.8573 -84.1472 191° South 442 509 38,000  Level FlightAware ADS-B (KDZJ)
Sun 04:31:37 PM 34.7934 -84.1624 191° South 442 509 38,000  Level FlightAware ADS-B (KDZJ)
Sun 04:32:23 PM 34.7025 -84.1839 191° South 431 496 38,000  Level FlightAware ADS-B (KDZJ)
Sun 04:33:03 PM 34.6204 -84.2033 191° South 429 494 38,000  Level FlightAware ADS-B (KDZJ)
Sun 04:33:39 PM 34.5503 -84.2198 191° South 426 490 38,000  Level FlightAware ADS-B (KDZJ)
Sun 04:34:25 PM 34.4588 -84.2414 191° South 425 489 38,000  Level FlightAware ADS-B (KDZJ)
Sun 04:35:05 PM 34.3806 -84.2599 191° South 424 488 38,000  Level FlightAware ADS-B (KDZJ)
Sun 04:35:46 PM 34.3008 -84.2787 191° South 425 489 38,000  Level FlightAware ADS-B (KDZJ)
Sun 04:36:25 PM 34.2234 -84.2969 191° South 427 491 38,000  Level FlightAware ADS-B (KDZJ)
Sun 04:37:06 PM 34.1427 -84.3158 191° South 429 494 38,000  Level FlightAware ADS-B (KDZJ)
Sun 04:37:45 PM 34.0640 -84.3341 191° South 440 506 38,000 76 Level FlightAware ADS-B (KDZJ)
Sun 04:38:25 PM 33.9847 -84.3526 191° South 440 506 38,100 298 Climbing FlightAware ADS-B (KDZJ)
Sun 04:39:46 PM 33.8458 -84.3864 191° South 441 507 38,600 383 Climbing Atlanta Center
Sun 04:40:46 PM 33.7228 -84.4158 191° South 449 517 39,000 200 Climbing Atlanta Center
Sun 04:41:46 PM 33.5994 -84.4353 187° South 449 517 39,000  Level Atlanta Center
Sun 04:42:46 PM 33.4658 -84.4347 180° South 467 537 39,000  Level Atlanta Center
Sun 04:43:46 PM 33.3364 -84.4342 180° South 467 537 39,000  Level Atlanta Center
Sun 04:44:46 PM 33.1967 -84.4311 179° South 467 537 39,000  Level Atlanta Center
Sun 04:45:46 PM 33.0694 -84.4306 180° South 458 527 39,000  Level Atlanta Center
Sun 04:46:46 PM 32.9378 -84.4250 178° South 458 527 39,000  Level Atlanta Center
Sun 04:47:46 PM 32.8125 -84.4244 180° South 458 527 39,000  Level Atlanta Center
Sun 04:48:46 PM 32.7000 -84.4164 177° South 458 527 39,000  Level Atlanta Center
Sun 04:49:46 PM 32.5747 -84.4158 180° South 458 527 39,000  Level Atlanta Center
Sun 04:50:46 PM 32.4494 -84.4131 179° South 453 521 39,000  Level Atlanta Center
Sun 04:51:46 PM 32.3264 -84.4100 179° South 453 521 39,000  Level Atlanta Center
Sun 04:52:46 PM 32.2011 -84.4069 179° South 453 521 39,000  Level Atlanta Center
Sun 04:53:43 PM 32.0844 -84.4056 179° South 442 509 39,000  Level Jacksonville Center
Sun 04:54:43 PM 31.9633 -84.4058 180° South 432 497 39,000  Level Jacksonville Center
Sun 04:55:43 PM 31.8381 -84.4014 178° South 437 503 39,000  Level Jacksonville Center
Sun 05:01:27 PM 31.1221 -84.3850 179° South 438 504 39,000  Level FlightAware ADS-B (KONZ)
Sun 05:02:08 PM 31.0530 -84.3836 179° South 436 502 39,000  Level FlightAware ADS-B (KONZ)
Sun 05:02:39 PM 30.9907 -84.3824 179° South 433 498 39,000  Level FlightAware ADS-B (KONZ)
Sun 05:03:44 PM 30.8659 -84.3800 179° South 429 494 39,000  Level FlightAware ADS-B (KONZ)
Sun 05:04:19 PM 30.7794 -84.3783 179° South 429 494 39,000  Level FlightAware ADS-B (KONZ)
Sun 05:04:53 PM 30.7167 -84.3771 179° South 429 494 39,000  Level FlightAware ADS-B
Sun 05:05:24 PM 30.6526 -84.3720 173° South 438 504 39,000  Level FlightAware ADS-B
Sun 05:05:34 PM 30.6290 -84.3682 170° South 443 510 39,000  Level FlightAware ADS-B (KONZ)
Sun 05:06:09 PM 30.5581 -84.3502 165° South 453 521 39,000  Level FlightAware ADS-B (KONZ)
Sun 05:06:43 PM 30.4983 -84.3272 158° South 467 537 39,000  Level FlightAware ADS-B
Sun 05:07:19 PM 30.4186 -84.2835 151° Southeast 479 551 39,000  Level FlightAware ADS-B (KONZ)
Sun 05:07:53 PM 30.3529 -84.2404 151° Southeast 480 552 39,000  Level FlightAware ADS-B
Sun 05:08:23 PM 30.2960 -84.2034 151° Southeast 479 551 39,000  Level FlightAware ADS-B
Sun 05:08:59 PM 30.2251 -84.1571 151° Southeast 480 552 39,000  Level FlightAware ADS-B (KONZ)
Sun 05:09:29 PM 30.1706 -84.1216 150° Southeast 480 552 39,000  Level FlightAware ADS-B (KONZ)
Sun 05:09:59 PM 30.1097 -84.0819 150° Southeast 478 550 39,000  Level FlightAware ADS-B (KONZ)
Sun 05:10:37 PM 30.0390 -84.0360 151° Southeast 476 548 39,000  Level FlightAware ADS-B (KONZ)
Sun 05:11:09 PM 29.9742 -83.9939 151° Southeast 476 548 39,000  Level FlightAware ADS-B (KONZ)
Sun 05:11:49 PM 29.8985 -83.9448 151° Southeast 476 548 39,000  Level FlightAware ADS-B (KONZ)
Sun 05:12:39 PM 29.8985 -83.9448 150° Southeast 478 550 39,000  Level FlightAware ADS-B (KONZ)
Sun 05:13:43 PM 29.6869 -83.8106 150° Southeast 480 552 39,000  Level Jacksonville Center
Sun 05:14:43 PM 29.5706 -83.7331 150° Southeast 480 552 39,000  Level Jacksonville Center
Sun 05:15:43 PM 29.4519 -83.6606 152° Southeast 480 552 39,000  Level Jacksonville Center
Sun 05:16:43 PM 29.3397 -83.5858 150° Southeast 480 552 39,000  Level Jacksonville Center
Sun 05:22:35 PM 28.6559 -83.1514 151° Southeast 469 540 39,000  Level FlightAware ADS-B
Sun 05:23:25 PM 28.5643 -83.0937 151° Southeast 471 542 39,000  Level FlightAware ADS-B
Sun 05:25:55 PM 28.2757 -82.9131 151° Southeast 471 542 39,000  Level FlightAware ADS-B
Sun 05:26:33 PM 28.2029 -82.8676 151° Southeast 470 541 39,000  Level FlightAware ADS-B
Sun 05:28:16 PM 28.0069 -82.7456 151° Southeast 468 539 39,000  Level FlightAware ADS-B
Sun 05:29:23 PM 27.8776 -82.6691 159° South 460 529 39,000  Level FlightAware ADS-B
Sun 05:29:56 PM 27.8171 -82.6459 161° South 457 526 39,000  Level FlightAware ADS-B
Sun 05:30:25 PM 27.7539 -82.6309 178° South 425 489 39,000  Level FlightAware ADS-B
Sun 05:31:35 PM 27.6153 -82.6269 178° South 428 493 39,000  Level FlightAware ADS-B
Sun 05:35:35 PM 27.1371 -82.6122 178° South 430 495 39,000  Level FlightAware ADS-B
Sun 05:36:12 PM 27.0628 -82.6099 179° South 430 495 39,000  Level FlightAware ADS-B
Sun 05:39:24 PM 26.6944 -82.5987 178° South 425 489 39,000  Level FlightAware ADS-B
Sun 05:40:14 PM 26.5867 -82.5955 178° South 426 490 39,000  Level FlightAware ADS-B
Sun 05:41:05 PM 26.4814 -82.5923 178° South 425 489 39,000  Level FlightAware ADS-B
Sun 05:41:36 PM 26.4254 -82.5906 179° South 426 490 39,000  Level FlightAware ADS-B
Sun 05:42:07 PM 26.3622 -82.5887 178° South 427 491 39,000  Level FlightAware ADS-B
Sun 05:42:47 PM 26.2804 -82.5862 179° South 426 490 39,000  Level FlightAware ADS-B
Sun 05:45:17 PM 25.9847 -82.5773 178° South 422 486 39,000  Level FlightAware ADS-B
Sun 05:46:07 PM 25.8878 -82.5743 178° South 419 482 39,000  Level FlightAware ADS-B
Sun 05:46:47 PM 25.8125 -82.5721 179° South 418 481 39,000  Level FlightAware ADS-B
Sun 05:47:21 PM 25.7503 -82.5703 179° South 417 480 39,000  Level FlightAware ADS-B
Sun 05:48:26 PM 25.6204 -82.5665 178° South 417 480 39,000  Level FlightAware ADS-B
Sun 05:48:57 PM 25.5590 -82.5646 178° South 417 480 39,000 -160 Level FlightAware ADS-B
Sun 05:51:34 PM 25.2551 -82.5555 179° South 414 476 38,500 -332 Descending FlightAware ADS-B
Sun 05:52:16 PM 25.1847 -82.5544 179° South 417 480 37,900 -941 Descending Miami Center
Sun 05:53:16 PM 25.0678 -82.5536 180° South 417 480 36,900 -1,050 Descending Miami Center
Sun 05:54:16 PM 24.9467 -82.5503 179° South 422 486 35,800 -1,000 Descending Miami Center
Sun 05:55:16 PM 24.8236 -82.5469 179° South 428 493 34,900 -1,200 Descending Miami Center
Sun 05:56:16 PM 24.7069 -82.5439 179° South 434 499 33,400 -1,545 Descending Miami Center
Sun 05:57:28 PM 24.5903 -82.5406 179° South 434 499 31,500 -1,688 Descending Miami Center
Sun 05:59:28 PM 24.3400 -82.5317 178° South 415 478 28,000 -1,767 Descending Miami Center
Sun 06:00:28 PM 24.2294 -82.5311 180° South 410 472 26,200 -1,900 Descending Miami Center
Sun 06:01:28 PM 24.1128 -82.5258 178° South 410 472 24,200 -2,000 Descending Miami Center
Sun 06:02:28 PM 24.0019 -82.5253 180° South 410 472 22,200 -2,050 Descending Miami Center
Sun 06:03:28 PM 23.8933 -82.5317 183° South 405 466 20,100 -1,950 Descending Miami Center
Sun 06:04:28 PM 23.7864 -82.5453 187° South 400 460 18,300 -1,750 Descending Miami Center
Sun 06:05:28 PM 23.6836 -82.5542 185° South 388 447 16,600 -1,700 Descending Miami Center
Sun 06:07:00 PM 23.5260 -82.5211 172° South  Level Estimated
Sun 06:14:00 PM 22.9891 -82.4091 180° South  Level Estimated
Sun 06:15:00 PM 22.9891 -82.4091 180° South  Level Estimated
Sun 06:16:00 PM 22.9891 -82.4091 180° South  Level Estimated
Sun 06:17:00 PM 22.9891 -82.4091 180° South  Level Estimated
Sun 06:18:00 PM 22.9891 -82.4091 180° South  Level Estimated
Sun 06:19:00 PM 22.9891 -82.4091 180° South  Level Estimated
Sun 06:20:00 PM 22.9891 -82.4091 180° South  Level Estimated
Sun 06:21:00 PM 22.9891 -82.4091 180° South  Level Estimated
Sun 06:22:00 PM 22.9891 -82.4091 180° South  Level Estimated
Sun 06:23:00 PM 22.9891 -82.4091 180° South  Level Estimated
Sun 06:24:00 PM 22.9891 -82.4091 180° South  Level Estimated
Sun 06:25:00 PM 22.9891 -82.4091 180° South  Level Estimated
Sun 06:26:00 PM 22.9891 -82.4091 180° South  Level Estimated
Sun 06:27:00 PM 22.9891 -82.4091 180° South  Level Estimated
Sun 06:28:00 PM 22.9891 -82.4091 180° South  Level Estimated
Sun 06:29:00 PM 22.9891 -82.4091 180° South  Level Estimated
Sun 06:30:00 PM 22.9891 -82.4091 180° South  Level Estimated
Sun 06:31:00 PM 22.9891 -82.4091 180° South  Level Estimated
Sun 06:32:00 PM 22.9891 -82.4091 180° South  Level Estimated
Sun 06:33:00 PM 22.9891 -82.4091 180° South  Level Estimated

Login

Don't have an account? Register now (free) for customized features, flight alerts, and more!